createdAt,value
2022-07-26T00:04:41.683Z,7
2022-07-26T00:10:41.698Z,5
2022-07-26T00:16:41.758Z,4
2022-07-26T00:22:41.687Z,3
2022-07-26T00:28:41.683Z,4
2022-07-26T00:34:41.674Z,5
2022-07-26T00:40:41.708Z,4
2022-07-26T00:46:41.791Z,5
2022-07-26T00:52:41.707Z,4
2022-07-26T00:58:41.709Z,5
2022-07-26T01:04:41.701Z,4
2022-07-26T01:10:41.715Z,4
2022-07-26T01:16:41.825Z,7
2022-07-26T01:22:41.705Z,4
2022-07-26T01:28:41.708Z,5
2022-07-26T01:34:41.711Z,5
2022-07-26T01:40:41.700Z,6
2022-07-26T01:46:41.706Z,5
2022-07-26T01:52:41.696Z,5
2022-07-26T01:58:41.717Z,5
2022-07-26T02:04:41.699Z,6
2022-07-26T02:10:41.706Z,4
2022-07-26T02:16:41.711Z,4
2022-07-26T02:22:41.710Z,3
2022-07-26T02:28:41.712Z,2
2022-07-26T02:34:41.700Z,5
2022-07-26T02:40:41.730Z,4
2022-07-26T02:46:41.861Z,5
2022-07-26T02:52:41.709Z,4
2022-07-26T02:58:41.711Z,5
2022-07-26T03:04:41.716Z,4
2022-07-26T03:10:41.707Z,6
2022-07-26T03:16:41.737Z,4
2022-07-26T03:22:41.743Z,5
2022-07-26T03:28:41.729Z,3
2022-07-26T03:34:41.705Z,4
2022-07-26T03:40:41.733Z,3
2022-07-26T03:46:41.771Z,4
2022-07-26T03:52:41.731Z,4
2022-07-26T03:58:41.752Z,4
2022-07-26T04:04:41.716Z,3
2022-07-26T04:10:41.749Z,4
2022-07-26T04:16:43.810Z,2
2022-07-26T04:22:41.727Z,4
2022-07-26T04:28:41.733Z,3
2022-07-26T04:34:41.737Z,4
2022-07-26T04:40:41.739Z,5
2022-07-26T04:46:44.925Z,6
2022-07-26T04:52:41.737Z,3
2022-07-26T04:58:41.839Z,5
2022-07-26T05:04:41.753Z,5
2022-07-26T05:10:44.857Z,4
2022-07-26T05:16:44.042Z,5
2022-07-26T05:22:41.778Z,7
2022-07-26T05:28:41.801Z,3
2022-07-26T05:34:41.791Z,3
2022-07-26T05:40:44.784Z,4
2022-07-26T05:46:41.799Z,4
2022-07-26T05:52:41.791Z,6
2022-07-26T05:58:41.797Z,5
2022-07-26T06:04:41.866Z,6
2022-07-26T06:10:41.797Z,5
2022-07-26T06:16:41.925Z,10
2022-07-26T06:22:41.811Z,6
2022-07-26T06:28:41.802Z,9
2022-07-26T06:34:41.803Z,8
2022-07-26T06:40:41.813Z,7
2022-07-26T06:46:41.824Z,6
2022-07-26T06:52:41.807Z,8
2022-07-26T06:58:41.806Z,17
2022-07-26T07:04:41.980Z,24
2022-07-26T07:10:41.799Z,13
2022-07-26T07:16:41.939Z,12
2022-07-26T07:22:41.841Z,10
2022-07-26T07:28:41.820Z,8
2022-07-26T07:34:41.813Z,8
2022-07-26T07:40:41.818Z,9
2022-07-26T07:46:41.927Z,7
2022-07-26T07:52:41.829Z,7
2022-07-26T07:58:47.008Z,10
2022-07-26T08:04:41.905Z,9
2022-07-26T08:10:51.525Z,12
2022-07-26T08:16:41.901Z,11
2022-07-26T08:22:41.838Z,8
2022-07-26T08:28:48.831Z,7
2022-07-26T08:34:41.819Z,10
2022-07-26T08:40:41.854Z,12
2022-07-26T08:46:41.943Z,8
2022-07-26T08:52:41.818Z,9
2022-07-26T08:58:44.705Z,8
2022-07-26T09:04:44.767Z,7
2022-07-26T09:10:41.829Z,7
2022-07-26T09:16:41.890Z,9
2022-07-26T09:22:41.844Z,8
2022-07-26T09:28:45.093Z,10
2022-07-26T09:34:52.096Z,9
2022-07-26T09:40:41.846Z,10
2022-07-26T09:46:41.868Z,11
2022-07-26T09:52:41.840Z,11
2022-07-26T09:58:41.857Z,7
2022-07-26T10:04:41.876Z,10
2022-07-26T10:10:41.874Z,9
2022-07-26T10:16:41.862Z,11
2022-07-26T10:22:41.858Z,8
2022-07-26T10:28:41.860Z,12
2022-07-26T10:34:41.864Z,10
2022-07-26T10:40:41.861Z,12
2022-07-26T10:46:41.894Z,9
2022-07-26T10:52:41.870Z,9
2022-07-26T10:58:41.875Z,9
2022-07-26T11:04:41.870Z,9
2022-07-26T11:10:41.881Z,9
2022-07-26T11:16:41.876Z,9
2022-07-26T11:22:41.958Z,8
2022-07-26T11:28:41.893Z,10
2022-07-26T11:34:41.890Z,8
2022-07-26T11:40:41.901Z,8
2022-07-26T11:46:41.949Z,7
2022-07-26T11:52:41.885Z,11
2022-07-26T11:58:41.901Z,6
2022-07-26T12:04:42.123Z,9
2022-07-26T12:10:41.931Z,5
2022-07-26T12:16:41.909Z,5
2022-07-26T12:22:41.907Z,5
2022-07-26T12:28:41.911Z,5
2022-07-26T12:34:41.915Z,5
2022-07-26T12:40:41.911Z,4
2022-07-26T12:46:42.063Z,9
2022-07-26T12:52:41.918Z,7
2022-07-26T12:58:41.910Z,7
2022-07-26T13:04:41.978Z,6
2022-07-26T13:10:41.931Z,7
2022-07-26T13:16:42.001Z,5
2022-07-26T13:22:41.985Z,5
2022-07-26T13:28:41.927Z,6
2022-07-26T13:34:41.943Z,7
2022-07-26T13:40:41.926Z,6
2022-07-26T13:46:41.997Z,5
2022-07-26T13:52:41.920Z,6
2022-07-26T13:58:41.935Z,5
2022-07-26T14:04:41.928Z,5
2022-07-26T14:10:41.931Z,5
2022-07-26T14:16:41.992Z,5
2022-07-26T14:22:41.916Z,5
2022-07-26T14:28:41.932Z,5
2022-07-26T14:34:41.942Z,4
2022-07-26T14:40:41.936Z,6
2022-07-26T14:46:41.934Z,5
2022-07-26T14:52:41.962Z,4
2022-07-26T14:58:41.943Z,3
2022-07-26T15:04:41.932Z,6
2022-07-26T15:10:42.063Z,4
2022-07-26T15:16:42.109Z,4
2022-07-26T15:22:41.941Z,5
2022-07-26T15:28:41.947Z,4
2022-07-26T15:34:41.973Z,5
2022-07-26T15:40:41.943Z,7
2022-07-26T15:46:41.948Z,4
2022-07-26T15:52:41.977Z,3
2022-07-26T15:58:41.964Z,3
2022-07-26T16:04:41.982Z,4
2022-07-26T16:10:41.954Z,5
2022-07-26T16:16:42.062Z,7
2022-07-26T16:22:42.126Z,3
2022-07-26T16:28:41.960Z,3
2022-07-26T16:34:41.957Z,4
2022-07-26T16:40:41.947Z,4
2022-07-26T16:46:42.017Z,5
2022-07-26T16:52:41.971Z,3
2022-07-26T16:58:41.971Z,4
2022-07-26T17:04:41.963Z,3
2022-07-26T17:10:41.969Z,4
2022-07-26T17:16:42.103Z,3
2022-07-26T17:22:41.968Z,4
2022-07-26T17:28:41.972Z,3
2022-07-26T17:34:42.015Z,3
2022-07-26T17:40:41.964Z,3
2022-07-26T17:46:42.006Z,2
2022-07-26T17:52:41.980Z,4
2022-07-26T17:58:41.975Z,4
2022-07-26T18:04:41.994Z,3
2022-07-26T18:10:41.988Z,4
2022-07-26T18:16:42.020Z,3
2022-07-26T18:22:41.993Z,4
2022-07-26T18:28:41.964Z,4
2022-07-26T18:34:41.978Z,3
2022-07-26T18:40:41.982Z,4
2022-07-26T18:46:42.121Z,3
2022-07-26T18:52:41.989Z,4
2022-07-26T18:58:41.993Z,4
2022-07-26T19:04:41.979Z,11
2022-07-26T19:10:41.980Z,6
2022-07-26T19:16:41.997Z,9
2022-07-26T19:22:41.982Z,4
2022-07-26T19:28:41.991Z,3
2022-07-26T19:34:42.022Z,3
2022-07-26T19:40:42.036Z,5
2022-07-26T19:46:42.024Z,3
2022-07-26T19:52:41.992Z,4
2022-07-26T19:58:41.997Z,2
2022-07-26T20:04:45.883Z,2
2022-07-26T20:10:42.024Z,4
2022-07-26T20:16:42.124Z,3
2022-07-26T20:22:41.991Z,2
2022-07-26T20:28:42.001Z,3
2022-07-26T20:34:42.020Z,2
2022-07-26T20:40:41.996Z,3
2022-07-26T20:46:41.991Z,2
2022-07-26T20:52:42.008Z,3
2022-07-26T20:58:41.999Z,3
2022-07-26T21:04:42.010Z,4
2022-07-26T21:10:41.987Z,5
2022-07-26T21:16:42.089Z,3
2022-07-26T21:22:42.006Z,4
2022-07-26T21:28:42.027Z,6
2022-07-26T21:34:42.092Z,4
2022-07-26T21:40:42.016Z,3
2022-07-26T21:46:42.103Z,3
2022-07-26T21:52:42.013Z,4
2022-07-26T21:58:42.011Z,3
2022-07-26T22:04:42.013Z,5
2022-07-26T22:10:44.229Z,4
2022-07-26T22:16:42.114Z,4
2022-07-26T22:22:42.013Z,4
2022-07-26T22:28:42.014Z,3
2022-07-26T22:34:42.015Z,4
2022-07-26T22:40:42.014Z,4
2022-07-26T22:46:42.023Z,5
2022-07-26T22:52:42.040Z,3
2022-07-26T22:58:42.045Z,4
2022-07-26T23:04:42.027Z,5
2022-07-26T23:10:42.037Z,6
2022-07-26T23:16:42.231Z,4
2022-07-26T23:22:42.028Z,4
2022-07-26T23:28:42.028Z,4
2022-07-26T23:34:42.052Z,6
2022-07-26T23:40:42.029Z,5
2022-07-26T23:46:42.130Z,7
2022-07-26T23:52:42.042Z,5
2022-07-26T23:58:42.017Z,7
